Wilson Gaeta — 8PTS — position and weather

sailwx.info

Track history (hours):
 
Tides and Currents Weather Stations Pressure Air Temp Water Temp Dewpoint Dewpoint Depression Visibility Wind Speed Wind Dir Waves Ship Positions

Wilson Gaeta

Last reported at 2017-Feb-18 18:26 UTC. Time now 2017-Feb-22 06:37 UTC.
Position N 55°34' E 017°44'.

Length 88 m; draft 4.3 m.

Type: Ship. MMSI: 314237000.

Date/timePositionNaut miles runAvg speedWind from/ knotsBaromVisibWave heightAir tempDewpointWater temp
2017-Feb-18 18:26N 55°34' E 017°44'10 9.8
2017-Feb-18 17:25N 55°33' E 017°26'9 9.9
2017-Feb-18 16:33N 55°32' E 017°11'11 9.9
2017-Feb-18 15:28N 55°31' E 016°53'9 9.8
2017-Feb-18 14:33N 55°30' E 016°37'10 9.9
2017-Feb-18 13:33N 55°29' E 016°19'1210.1
2017-Feb-18 12:23N 55°28' E 015°59'810.0
2017-Feb-18 11:33N 55°27' E 015°44'10 9.6
2017-Feb-18 10:34N 55°26' E 015°27'9 9.3
2017-Feb-18 09:34N 55°25' E 015°11'10 9.7
2017-Feb-18 08:33N 55°24' E 014°54'10 9.5
2017-Feb-18 07:33N 55°22' E 014°38'1110.4
2017-Feb-18 06:31N 55°14' E 014°25'1010.4
2017-Feb-18 05:33N 55°10' E 014°09'1110.5
2017-Feb-18 04:33N 55°11' E 013°50'1110.6
2017-Feb-18 03:31N 55°12' E 013°31'1110.7
2017-Feb-18 02:31N 55°13' E 013°13'1010.8
2017-Feb-18 01:33N 55°14' E 012°55'1010.2
2017-Feb-18 00:34N 55°18' E 012°38'1010.5
2017-Feb-17 23:34N 55°29' E 012°41'1211.6
2017-Feb-17 22:34N 55°40' E 012°41'1111.2
2017-Feb-17 21:34N 55°52' E 012°41'1110.9
2017-Feb-17 20:34N 56°02' E 012°38'1111.4
2017-Feb-17 19:34N 56°09' E 012°22'4410.3
2017-Feb-17 15:18N 56°06' E 011°04'710.1
2017-Feb-17 14:33N 56°03' E 010°52'1010.3
2017-Feb-17 13:33N 56°04' E 010°33'10 9.9
2017-Feb-17 12:33N 56°09' E 010°17'2 1.9
2017-Feb-17 11:32N 56°09' E 010°14'0 0.0
2017-Feb-17 10:32N 56°09' E 010°14'0 0.0
2017-Feb-17 09:32N 56°09' E 010°14'0 0.0
2017-Feb-17 08:32N 56°09' E 010°14'0 0.0
2017-Feb-17 07:32N 56°09' E 010°14'0 0.0
2017-Feb-17 06:32N 56°09' E 010°14'0 0.0
2017-Feb-17 05:31N 56°09' E 010°14'0 0.0
2017-Feb-17 04:31N 56°09' E 010°14'0 0.0
2017-Feb-17 03:31N 56°09' E 010°14'0 0.0
2017-Feb-17 02:31N 56°09' E 010°14'0 0.0
2017-Feb-17 01:31N 56°09' E 010°14'0 0.0
2017-Feb-17 00:31N 56°09' E 010°14'0 0.0
2017-Feb-16 23:31N 56°09' E 010°14'0 0.0
2017-Feb-16 22:31N 56°09' E 010°14'0 0.0
2017-Feb-16 21:31N 56°09' E 010°14'0 0.0
2017-Feb-16 20:31N 56°09' E 010°14'0 0.0
2017-Feb-16 19:25N 56°09' E 010°14'0 0.0
2017-Feb-16 18:31N 56°09' E 010°14'0 0.0
2017-Feb-16 17:31N 56°09' E 010°14'0 0.0
2017-Feb-16 16:31N 56°09' E 010°14'0 0.0
2017-Feb-16 15:31N 56°09' E 010°14'0 0.0
2017-Feb-16 14:31N 56°09' E 010°14'0 0.0
2017-Feb-16 13:31N 56°09' E 010°14'0 0.0
2017-Feb-16 12:31N 56°09' E 010°14'0 0.0
2017-Feb-16 11:31N 56°09' E 010°14'0 0.0
2017-Feb-16 10:31N 56°09' E 010°14'0 0.0
2017-Feb-16 09:31N 56°09' E 010°14'0 0.0
2017-Feb-16 08:31N 56°09' E 010°14'0 0.0
2017-Feb-16 07:31N 56°09' E 010°14'0 0.0
2017-Feb-16 06:31N 56°09' E 010°14'0 0.0
2017-Feb-16 05:31N 56°09' E 010°14'0 0.0
2017-Feb-16 04:31N 56°09' E 010°14'0 0.0
2017-Feb-16 03:31N 56°09' E 010°14'0 0.0
2017-Feb-16 02:31N 56°09' E 010°14'0 0.0
2017-Feb-16 01:31N 56°09' E 010°14'0 0.0
2017-Feb-16 00:31N 56°09' E 010°14'0 0.0
2017-Feb-15 23:31N 56°09' E 010°14'0 0.0
2017-Feb-15 22:31N 56°09' E 010°14'0 0.0
2017-Feb-15 21:31N 56°09' E 010°14'0 0.0
2017-Feb-15 20:31N 56°09' E 010°14'0 0.0
2017-Feb-15 19:31N 56°09' E 010°14'0 0.0
2017-Feb-15 18:28N 56°09' E 010°14'0 0.0
2017-Feb-15 17:31N 56°09' E 010°14'0 0.0
2017-Feb-15 16:31N 56°09' E 010°14'0 0.0
2017-Feb-15 15:31N 56°09' E 010°14'0 0.0
2017-Feb-15 14:31N 56°09' E 010°14'0 0.1
2017-Feb-15 13:33N 56°09' E 010°14'0 0.4
2017-Feb-15 12:31N 56°09' E 010°13'0 0.0
2017-Feb-15 11:31N 56°09' E 010°13'0 0.0
2017-Feb-15 10:31N 56°09' E 010°13'0 0.0
2017-Feb-15 09:31N 56°09' E 010°13'0 0.0
2017-Feb-15 08:31N 56°09' E 010°13'0 0.0
2017-Feb-15 07:31N 56°09' E 010°13'0 0.0
2017-Feb-15 06:31N 56°09' E 010°13'0 0.0
2017-Feb-15 05:31N 56°09' E 010°13'0 0.0
2017-Feb-15 04:31N 56°09' E 010°13'0 0.0
2017-Feb-15 03:31N 56°09' E 010°13'0 0.0
2017-Feb-15 02:31N 56°09' E 010°13'0 0.0
2017-Feb-15 01:28N 56°09' E 010°13'0 0.0
2017-Feb-15 00:31N 56°09' E 010°13'0 0.0
2017-Feb-14 23:31N 56°09' E 010°13'0 0.0
2017-Feb-14 22:31N 56°09' E 010°13'0 0.0
2017-Feb-14 21:31N 56°09' E 010°13'0 0.0
2017-Feb-14 20:31N 56°09' E 010°13'0 0.0
2017-Feb-14 19:31N 56°09' E 010°13'0 0.0
2017-Feb-14 18:31N 56°09' E 010°13'0 0.0
2017-Feb-14 17:31N 56°09' E 010°13'0 0.0
2017-Feb-14 16:31N 56°09' E 010°13'0 0.0
2017-Feb-14 15:31N 56°09' E 010°13'0 0.0
2017-Feb-14 14:31N 56°09' E 010°13'1 1.2
2017-Feb-14 13:33N 56°09' E 010°15'2 1.7
2017-Feb-14 12:32N 56°08' E 010°17'0 0.0
2017-Feb-14 11:32N 56°08' E 010°17'0 0.0
2017-Feb-14 10:32N 56°08' E 010°17'0 0.2
2017-Feb-14 09:33N 56°08' E 010°17'1010.2
2017-Feb-14 08:33N 56°05' E 010°34'11 9.5
2017-Feb-14 07:24N 56°05' E 010°54'910.4
2017-Feb-14 06:34N 56°13' E 010°59'1010.3
2017-Feb-14 05:33N 56°23' E 011°05'10 9.7
2017-Feb-14 04:33N 56°32' E 011°03'10 9.6
2017-Feb-14 03:33N 56°42' E 011°00'9 8.9
2017-Feb-14 02:33N 56°50' E 010°56'1010.0
2017-Feb-14 01:33N 56°60' E 010°50'10 9.9
2017-Feb-14 00:34N 57°09' E 010°45'10 9.6
2017-Feb-13 23:33N 57°19' E 010°42'1010.0
2017-Feb-13 22:33N 57°29' E 010°43'9 9.3
2017-Feb-13 21:33N 57°38' E 010°44'9 8.9
2017-Feb-13 20:33N 57°47' E 010°43'9 8.8
2017-Feb-13 19:34N 57°47' E 010°27'9 8.7
2017-Feb-13 18:33N 57°48' E 010°10'9 9.3
2017-Feb-13 17:33N 57°48' E 009°53'1010.2
2017-Feb-13 16:33N 57°48' E 009°34'1110.5
2017-Feb-13 15:33N 57°49' E 009°14'1210.8
2017-Feb-13 14:25N 57°50' E 008°51'2111.1
2017-Feb-13 12:33N 57°51' E 008°12'10 9.6
2017-Feb-13 11:33N 57°51' E 007°54'9 9.0
2017-Feb-13 10:33N 57°52' E 007°37'10 9.6
2017-Feb-13 09:33N 57°53' E 007°19'1110.6
2017-Feb-13 08:33N 57°55' E 006°60'1010.3
2017-Feb-13 07:33N 57°57' E 006°41'9 9.3
2017-Feb-13 06:33N 58°02' E 006°26'10 9.8
2017-Feb-13 05:33N 58°09' E 006°13'1010.4
2017-Feb-13 04:34N 58°17' E 005°59'1010.2
2017-Feb-13 03:33N 58°24' E 005°45'1110.7
2017-Feb-13 02:34N 58°32' E 005°32'1110.7
2017-Feb-13 01:33N 58°40' E 005°20'1111.1
2017-Feb-13 00:33N 58°50' E 005°10'1110.7
2017-Feb-12 23:34N 58°59' E 004°59'1010.2
2017-Feb-12 22:33N 59°08' E 004°49'49 9.6
2017-Feb-12 17:26N 59°57' E 004°34'910.1
2017-Feb-12 16:33N 60°06' E 004°32'1010.0
2017-Feb-12 15:33N 60°16' E 004°30'9 9.4
2017-Feb-12 14:33N 60°25' E 004°29'9 8.9
2017-Feb-12 13:34N 60°34' E 004°27'10 9.8
2017-Feb-12 12:33N 60°44' E 004°25'1010.2
2017-Feb-12 11:33N 60°54' E 004°23'1010.0
2017-Feb-12 10:33N 61°04' E 004°23'9 9.4
2017-Feb-12 09:33N 61°13' E 004°22'9 9.5
2017-Feb-12 08:33N 61°23' E 004°22'10 9.9
2017-Feb-12 07:33N 61°33' E 004°23'1010.5
2017-Feb-12 06:33N 61°43' E 004°25'10 9.8
2017-Feb-12 05:33N 61°52' E 004°33'1010.1
2017-Feb-12 04:33N 62°01' E 004°42'10 9.9
2017-Feb-12 03:33N 62°10' E 004°52'1010.4
2017-Feb-12 02:33N 62°19' E 005°04'10 9.7
2017-Feb-12 01:33N 62°26' E 005°17'10 9.6
2017-Feb-12 00:33N 62°33' E 005°31'10 9.8
2017-Feb-11 23:33N 62°41' E 005°45'10 9.8
2017-Feb-11 22:33N 62°48' E 005°59'9 9.4
2017-Feb-11 21:33N 62°55' E 006°13'9 9.3
2017-Feb-11 20:33N 63°02' E 006°26'1010.1
2017-Feb-11 19:33N 63°09' E 006°42'10 9.9
2017-Feb-11 18:33N 63°17' E 006°56'10 9.7
2017-Feb-11 17:33N 63°24' E 007°11'10 9.8
2017-Feb-11 16:33N 63°31' E 007°26'9 9.4
2017-Feb-11 15:33N 63°39' E 007°38'10 9.7
2017-Feb-11 14:33N 63°47' E 007°50'10 9.9
2017-Feb-11 13:33N 63°55' E 008°02'168 9.3
2017-Feb-10 19:33N 66°14' E 011°46'10 9.7
2017-Feb-10 18:33N 66°17' E 012°08'1010.1
2017-Feb-10 17:33N 66°15' E 012°33'10 9.9
2017-Feb-10 16:33N 66°20' E 012°54'1010.3
2017-Feb-10 15:33N 66°31' E 012°58'10 9.8
2017-Feb-10 14:33N 66°40' E 013°07'1010.3
2017-Feb-10 13:33N 66°48' E 013°23'1110.5
2017-Feb-10 12:33N 66°48' E 013°50'2 1.1
2017-Feb-10 10:15N 66°49' E 013°56'0 0.0
2017-Feb-10 05:26N 66°49' E 013°56'0 0.0
2017-Feb-10 01:23N 66°49' E 013°56'0 0.0
2017-Feb-10 00:29N 66°49' E 013°56'0 0.0
2017-Feb-09 23:33N 66°49' E 013°56'0 0.0
2017-Feb-09 22:32N 66°49' E 013°56'0 0.0
2017-Feb-09 13:17N 66°49' E 013°56'0 0.0
2017-Feb-09 04:23N 66°49' E 013°56'0 0.0
2017-Feb-08 23:14N 66°49' E 013°56'0 0.0
2017-Feb-08 20:27N 66°49' E 013°56'0 0.0
2017-Feb-08 19:17N 66°49' E 013°56'0 0.0
2017-Feb-08 18:29N 66°49' E 013°56'  
Track history (hours):
 
Tides and Currents Weather Stations Pressure Air Temp Water Temp Dewpoint Dewpoint Depression Visibility Wind Speed Wind Dir Waves Ship Positions

Wilson Gaeta

Last reported at 2017-Feb-18 18:26 UTC. Time now 2017-Feb-22 06:37 UTC.
Position N 55°34' E 017°44'.

Length 88 m; draft 4.3 m.

Type: Ship. MMSI: 314237000.

Date/timePositionNaut miles runAvg speedWind from/ knotsBaromVisibWave heightAir tempDewpointWater temp
2017-Feb-18 18:26N 55°34' E 017°44'10 9.8
2017-Feb-18 17:25N 55°33' E 017°26'9 9.9
2017-Feb-18 16:33N 55°32' E 017°11'11 9.9
2017-Feb-18 15:28N 55°31' E 016°53'9 9.8
2017-Feb-18 14:33N 55°30' E 016°37'10 9.9
2017-Feb-18 13:33N 55°29' E 016°19'1210.1
2017-Feb-18 12:23N 55°28' E 015°59'810.0
2017-Feb-18 11:33N 55°27' E 015°44'10 9.6
2017-Feb-18 10:34N 55°26' E 015°27'9 9.3
2017-Feb-18 09:34N 55°25' E 015°11'10 9.7
2017-Feb-18 08:33N 55°24' E 014°54'10 9.5
2017-Feb-18 07:33N 55°22' E 014°38'1110.4
2017-Feb-18 06:31N 55°14' E 014°25'1010.4
2017-Feb-18 05:33N 55°10' E 014°09'1110.5
2017-Feb-18 04:33N 55°11' E 013°50'1110.6
2017-Feb-18 03:31N 55°12' E 013°31'1110.7
2017-Feb-18 02:31N 55°13' E 013°13'1010.8
2017-Feb-18 01:33N 55°14' E 012°55'1010.2
2017-Feb-18 00:34N 55°18' E 012°38'1010.5
2017-Feb-17 23:34N 55°29' E 012°41'1211.6
2017-Feb-17 22:34N 55°40' E 012°41'1111.2
2017-Feb-17 21:34N 55°52' E 012°41'1110.9
2017-Feb-17 20:34N 56°02' E 012°38'1111.4
2017-Feb-17 19:34N 56°09' E 012°22'4410.3
2017-Feb-17 15:18N 56°06' E 011°04'710.1
2017-Feb-17 14:33N 56°03' E 010°52'1010.3
2017-Feb-17 13:33N 56°04' E 010°33'10 9.9
2017-Feb-17 12:33N 56°09' E 010°17'2 1.9
2017-Feb-17 11:32N 56°09' E 010°14'0 0.0
2017-Feb-17 10:32N 56°09' E 010°14'0 0.0
2017-Feb-17 09:32N 56°09' E 010°14'0 0.0
2017-Feb-17 08:32N 56°09' E 010°14'0 0.0
2017-Feb-17 07:32N 56°09' E 010°14'0 0.0
2017-Feb-17 06:32N 56°09' E 010°14'0 0.0
2017-Feb-17 05:31N 56°09' E 010°14'0 0.0
2017-Feb-17 04:31N 56°09' E 010°14'0 0.0
2017-Feb-17 03:31N 56°09' E 010°14'0 0.0
2017-Feb-17 02:31N 56°09' E 010°14'0 0.0
2017-Feb-17 01:31N 56°09' E 010°14'0 0.0
2017-Feb-17 00:31N 56°09' E 010°14'0 0.0
2017-Feb-16 23:31N 56°09' E 010°14'0 0.0
2017-Feb-16 22:31N 56°09' E 010°14'0 0.0
2017-Feb-16 21:31N 56°09' E 010°14'0 0.0
2017-Feb-16 20:31N 56°09' E 010°14'0 0.0
2017-Feb-16 19:25N 56°09' E 010°14'0 0.0
2017-Feb-16 18:31N 56°09' E 010°14'0 0.0
2017-Feb-16 17:31N 56°09' E 010°14'0 0.0
2017-Feb-16 16:31N 56°09' E 010°14'0 0.0
2017-Feb-16 15:31N 56°09' E 010°14'0 0.0
2017-Feb-16 14:31N 56°09' E 010°14'0 0.0
2017-Feb-16 13:31N 56°09' E 010°14'0 0.0
2017-Feb-16 12:31N 56°09' E 010°14'0 0.0
2017-Feb-16 11:31N 56°09' E 010°14'0 0.0
2017-Feb-16 10:31N 56°09' E 010°14'0 0.0
2017-Feb-16 09:31N 56°09' E 010°14'0 0.0
2017-Feb-16 08:31N 56°09' E 010°14'0 0.0
2017-Feb-16 07:31N 56°09' E 010°14'0 0.0
2017-Feb-16 06:31N 56°09' E 010°14'0 0.0
2017-Feb-16 05:31N 56°09' E 010°14'0 0.0
2017-Feb-16 04:31N 56°09' E 010°14'0 0.0
2017-Feb-16 03:31N 56°09' E 010°14'0 0.0
2017-Feb-16 02:31N 56°09' E 010°14'0 0.0
2017-Feb-16 01:31N 56°09' E 010°14'0 0.0
2017-Feb-16 00:31N 56°09' E 010°14'0 0.0
2017-Feb-15 23:31N 56°09' E 010°14'0 0.0
2017-Feb-15 22:31N 56°09' E 010°14'0 0.0
2017-Feb-15 21:31N 56°09' E 010°14'0 0.0
2017-Feb-15 20:31N 56°09' E 010°14'0 0.0
2017-Feb-15 19:31N 56°09' E 010°14'0 0.0
2017-Feb-15 18:28N 56°09' E 010°14'0 0.0
2017-Feb-15 17:31N 56°09' E 010°14'0 0.0
2017-Feb-15 16:31N 56°09' E 010°14'0 0.0
2017-Feb-15 15:31N 56°09' E 010°14'0 0.0
2017-Feb-15 14:31N 56°09' E 010°14'0 0.1
2017-Feb-15 13:33N 56°09' E 010°14'0 0.4
2017-Feb-15 12:31N 56°09' E 010°13'0 0.0
2017-Feb-15 11:31N 56°09' E 010°13'0 0.0
2017-Feb-15 10:31N 56°09' E 010°13'0 0.0
2017-Feb-15 09:31N 56°09' E 010°13'0 0.0
2017-Feb-15 08:31N 56°09' E 010°13'0 0.0
2017-Feb-15 07:31N 56°09' E 010°13'0 0.0
2017-Feb-15 06:31N 56°09' E 010°13'0 0.0
2017-Feb-15 05:31N 56°09' E 010°13'0 0.0
2017-Feb-15 04:31N 56°09' E 010°13'0 0.0
2017-Feb-15 03:31N 56°09' E 010°13'0 0.0
2017-Feb-15 02:31N 56°09' E 010°13'0 0.0
2017-Feb-15 01:28N 56°09' E 010°13'0 0.0
2017-Feb-15 00:31N 56°09' E 010°13'0 0.0
2017-Feb-14 23:31N 56°09' E 010°13'0 0.0
2017-Feb-14 22:31N 56°09' E 010°13'0 0.0
2017-Feb-14 21:31N 56°09' E 010°13'0 0.0
2017-Feb-14 20:31N 56°09' E 010°13'0 0.0
2017-Feb-14 19:31N 56°09' E 010°13'0 0.0
2017-Feb-14 18:31N 56°09' E 010°13'0 0.0
2017-Feb-14 17:31N 56°09' E 010°13'0 0.0
2017-Feb-14 16:31N 56°09' E 010°13'0 0.0
2017-Feb-14 15:31N 56°09' E 010°13'0 0.0
2017-Feb-14 14:31N 56°09' E 010°13'1 1.2
2017-Feb-14 13:33N 56°09' E 010°15'2 1.7
2017-Feb-14 12:32N 56°08' E 010°17'0 0.0
2017-Feb-14 11:32N 56°08' E 010°17'0 0.0
2017-Feb-14 10:32N 56°08' E 010°17'0 0.2
2017-Feb-14 09:33N 56°08' E 010°17'1010.2
2017-Feb-14 08:33N 56°05' E 010°34'11 9.5
2017-Feb-14 07:24N 56°05' E 010°54'910.4
2017-Feb-14 06:34N 56°13' E 010°59'1010.3
2017-Feb-14 05:33N 56°23' E 011°05'10 9.7
2017-Feb-14 04:33N 56°32' E 011°03'10 9.6
2017-Feb-14 03:33N 56°42' E 011°00'9 8.9
2017-Feb-14 02:33N 56°50' E 010°56'1010.0
2017-Feb-14 01:33N 56°60' E 010°50'10 9.9
2017-Feb-14 00:34N 57°09' E 010°45'10 9.6
2017-Feb-13 23:33N 57°19' E 010°42'1010.0
2017-Feb-13 22:33N 57°29' E 010°43'9 9.3
2017-Feb-13 21:33N 57°38' E 010°44'9 8.9
2017-Feb-13 20:33N 57°47' E 010°43'9 8.8
2017-Feb-13 19:34N 57°47' E 010°27'9 8.7
2017-Feb-13 18:33N 57°48' E 010°10'9 9.3
2017-Feb-13 17:33N 57°48' E 009°53'1010.2
2017-Feb-13 16:33N 57°48' E 009°34'1110.5
2017-Feb-13 15:33N 57°49' E 009°14'1210.8
2017-Feb-13 14:25N 57°50' E 008°51'2111.1
2017-Feb-13 12:33N 57°51' E 008°12'10 9.6
2017-Feb-13 11:33N 57°51' E 007°54'9 9.0
2017-Feb-13 10:33N 57°52' E 007°37'10 9.6
2017-Feb-13 09:33N 57°53' E 007°19'1110.6
2017-Feb-13 08:33N 57°55' E 006°60'1010.3
2017-Feb-13 07:33N 57°57' E 006°41'9 9.3
2017-Feb-13 06:33N 58°02' E 006°26'10 9.8
2017-Feb-13 05:33N 58°09' E 006°13'1010.4
2017-Feb-13 04:34N 58°17' E 005°59'1010.2
2017-Feb-13 03:33N 58°24' E 005°45'1110.7
2017-Feb-13 02:34N 58°32' E 005°32'1110.7
2017-Feb-13 01:33N 58°40' E 005°20'1111.1
2017-Feb-13 00:33N 58°50' E 005°10'1110.7
2017-Feb-12 23:34N 58°59' E 004°59'1010.2
2017-Feb-12 22:33N 59°08' E 004°49'49 9.6
2017-Feb-12 17:26N 59°57' E 004°34'910.1
2017-Feb-12 16:33N 60°06' E 004°32'1010.0
2017-Feb-12 15:33N 60°16' E 004°30'9 9.4
2017-Feb-12 14:33N 60°25' E 004°29'9 8.9
2017-Feb-12 13:34N 60°34' E 004°27'10 9.8
2017-Feb-12 12:33N 60°44' E 004°25'1010.2
2017-Feb-12 11:33N 60°54' E 004°23'1010.0
2017-Feb-12 10:33N 61°04' E 004°23'9 9.4
2017-Feb-12 09:33N 61°13' E 004°22'9 9.5
2017-Feb-12 08:33N 61°23' E 004°22'10 9.9
2017-Feb-12 07:33N 61°33' E 004°23'1010.5
2017-Feb-12 06:33N 61°43' E 004°25'10 9.8
2017-Feb-12 05:33N 61°52' E 004°33'1010.1
2017-Feb-12 04:33N 62°01' E 004°42'10 9.9
2017-Feb-12 03:33N 62°10' E 004°52'1010.4
2017-Feb-12 02:33N 62°19' E 005°04'10 9.7
2017-Feb-12 01:33N 62°26' E 005°17'10 9.6
2017-Feb-12 00:33N 62°33' E 005°31'10 9.8
2017-Feb-11 23:33N 62°41' E 005°45'10 9.8
2017-Feb-11 22:33N 62°48' E 005°59'9 9.4
2017-Feb-11 21:33N 62°55' E 006°13'9 9.3
2017-Feb-11 20:33N 63°02' E 006°26'1010.1
2017-Feb-11 19:33N 63°09' E 006°42'10 9.9
2017-Feb-11 18:33N 63°17' E 006°56'10 9.7
2017-Feb-11 17:33N 63°24' E 007°11'10 9.8
2017-Feb-11 16:33N 63°31' E 007°26'9 9.4
2017-Feb-11 15:33N 63°39' E 007°38'10 9.7
2017-Feb-11 14:33N 63°47' E 007°50'10 9.9
2017-Feb-11 13:33N 63°55' E 008°02'168 9.3
2017-Feb-10 19:33N 66°14' E 011°46'10 9.7
2017-Feb-10 18:33N 66°17' E 012°08'1010.1
2017-Feb-10 17:33N 66°15' E 012°33'10 9.9
2017-Feb-10 16:33N 66°20' E 012°54'1010.3
2017-Feb-10 15:33N 66°31' E 012°58'10 9.8
2017-Feb-10 14:33N 66°40' E 013°07'1010.3
2017-Feb-10 13:33N 66°48' E 013°23'1110.5
2017-Feb-10 12:33N 66°48' E 013°50'2 1.1
2017-Feb-10 10:15N 66°49' E 013°56'0 0.0
2017-Feb-10 05:26N 66°49' E 013°56'0 0.0
2017-Feb-10 01:23N 66°49' E 013°56'0 0.0
2017-Feb-10 00:29N 66°49' E 013°56'0 0.0
2017-Feb-09 23:33N 66°49' E 013°56'0 0.0
2017-Feb-09 22:32N 66°49' E 013°56'0 0.0
2017-Feb-09 13:17N 66°49' E 013°56'0 0.0
2017-Feb-09 04:23N 66°49' E 013°56'0 0.0
2017-Feb-08 23:14N 66°49' E 013°56'0 0.0
2017-Feb-08 20:27N 66°49' E 013°56'0 0.0
2017-Feb-08 19:17N 66°49' E 013°56'0 0.0
2017-Feb-08 18:29N 66°49' E 013°56'  

Dump ship's entire track history